sensor_id;sensor_type;location;lat;lon;timestamp;P1;durP1;ratioP1;P2;durP2;ratioP2
14209;SDS011;7188;56.070;12.698;2022-08-25T00:03:36;1.08;;;1.08;;
14209;SDS011;7188;56.070;12.698;2022-08-25T00:06:03;1.77;;;1.55;;
14209;SDS011;7188;56.070;12.698;2022-08-25T00:08:30;1.30;;;1.20;;
14209;SDS011;7188;56.070;12.698;2022-08-25T00:10:56;2.13;;;1.50;;
14209;SDS011;7188;56.070;12.698;2022-08-25T00:13:21;2.33;;;1.10;;
14209;SDS011;7188;56.070;12.698;2022-08-25T00:15:47;2.03;;;1.70;;
14209;SDS011;7188;56.070;12.698;2022-08-25T00:18:12;3.80;;;1.63;;
14209;SDS011;7188;56.070;12.698;2022-08-25T00:20:38;4.90;;;1.40;;
14209;SDS011;7188;56.070;12.698;2022-08-25T00:23:04;1.70;;;1.05;;
14209;SDS011;7188;56.070;12.698;2022-08-25T00:25:29;2.20;;;1.00;;
14209;SDS011;7188;56.070;12.698;2022-08-25T00:27:55;1.27;;;0.70;;
14209;SDS011;7188;56.070;12.698;2022-08-25T00:30:21;3.17;;;1.70;;
14209;SDS011;7188;56.070;12.698;2022-08-25T00:32:47;1.33;;;1.23;;
14209;SDS011;7188;56.070;12.698;2022-08-25T00:35:13;2.63;;;1.30;;
14209;SDS011;7188;56.070;12.698;2022-08-25T00:37:39;1.85;;;0.90;;
14209;SDS011;7188;56.070;12.698;2022-08-25T00:40:05;4.73;;;1.70;;
14209;SDS011;7188;56.070;12.698;2022-08-25T00:42:32;4.57;;;2.10;;
14209;SDS011;7188;56.070;12.698;2022-08-25T00:44:57;2.70;;;1.50;;
14209;SDS011;7188;56.070;12.698;2022-08-25T00:47:23;4.47;;;2.13;;
14209;SDS011;7188;56.070;12.698;2022-08-25T00:49:54;3.13;;;1.83;;
14209;SDS011;7188;56.070;12.698;2022-08-25T00:52:36;3.17;;;1.77;;
14209;SDS011;7188;56.070;12.698;2022-08-25T00:55:10;5.07;;;1.93;;
14209;SDS011;7188;56.070;12.698;2022-08-25T00:57:43;2.33;;;2.00;;
14209;SDS011;7188;56.070;12.698;2022-08-25T01:02:43;1.80;;;1.70;;
14209;SDS011;7188;56.070;12.698;2022-08-25T01:05:09;1.90;;;1.33;;
14209;SDS011;7188;56.070;12.698;2022-08-25T01:07:36;3.17;;;1.80;;
14209;SDS011;7188;56.070;12.698;2022-08-25T01:10:03;1.43;;;1.33;;
14209;SDS011;7188;56.070;12.698;2022-08-25T01:12:32;3.33;;;1.40;;
14209;SDS011;7188;56.070;12.698;2022-08-25T01:14:58;2.20;;;1.30;;
14209;SDS011;7188;56.070;12.698;2022-08-25T01:17:31;1.67;;;1.57;;
14209;SDS011;7188;56.070;12.698;2022-08-25T01:19:59;1.73;;;1.13;;
14209;SDS011;7188;56.070;12.698;2022-08-25T01:22:24;1.93;;;1.50;;
14209;SDS011;7188;56.070;12.698;2022-08-25T01:24:54;3.10;;;1.50;;
14209;SDS011;7188;56.070;12.698;2022-08-25T01:27:44;2.43;;;1.23;;
14209;SDS011;7188;56.070;12.698;2022-08-25T01:30:10;3.03;;;1.50;;
14209;SDS011;7188;56.070;12.698;2022-08-25T01:32:36;1.10;;;1.00;;
14209;SDS011;7188;56.070;12.698;2022-08-25T01:35:01;0.90;;;0.90;;
14209;SDS011;7188;56.070;12.698;2022-08-25T01:37:27;1.07;;;1.00;;
14209;SDS011;7188;56.070;12.698;2022-08-25T01:39:53;1.43;;;1.20;;
14209;SDS011;7188;56.070;12.698;2022-08-25T01:43:05;2.67;;;1.00;;
14209;SDS011;7188;56.070;12.698;2022-08-25T01:45:26;1.30;;;1.20;;
14209;SDS011;7188;56.070;12.698;2022-08-25T01:47:51;1.57;;;1.47;;
14209;SDS011;7188;56.070;12.698;2022-08-25T01:50:17;2.03;;;1.50;;
14209;SDS011;7188;56.070;12.698;2022-08-25T01:55:11;1.70;;;1.20;;
14209;SDS011;7188;56.070;12.698;2022-08-25T01:57:37;4.87;;;2.10;;
14209;SDS011;7188;56.070;12.698;2022-08-25T02:00:08;3.17;;;1.50;;
14209;SDS011;7188;56.070;12.698;2022-08-25T02:02:37;2.50;;;1.40;;
14209;SDS011;7188;56.070;12.698;2022-08-25T02:05:03;2.10;;;1.47;;
14209;SDS011;7188;56.070;12.698;2022-08-25T02:07:30;3.00;;;1.87;;
14209;SDS011;7188;56.070;12.698;2022-08-25T02:09:56;2.47;;;1.90;;
14209;SDS011;7188;56.070;12.698;2022-08-25T02:12:22;2.13;;;2.00;;
14209;SDS011;7188;56.070;12.698;2022-08-25T02:14:47;1.97;;;1.37;;
14209;SDS011;7188;56.070;12.698;2022-08-25T02:17:13;2.13;;;1.77;;
14209;SDS011;7188;56.070;12.698;2022-08-25T02:19:39;3.83;;;2.40;;
14209;SDS011;7188;56.070;12.698;2022-08-25T02:22:05;2.47;;;2.27;;
14209;SDS011;7188;56.070;12.698;2022-08-25T02:24:31;3.03;;;2.20;;
14209;SDS011;7188;56.070;12.698;2022-08-25T02:26:56;3.60;;;2.20;;
14209;SDS011;7188;56.070;12.698;2022-08-25T02:29:22;4.27;;;2.70;;
14209;SDS011;7188;56.070;12.698;2022-08-25T02:31:48;3.17;;;2.70;;
14209;SDS011;7188;56.070;12.698;2022-08-25T02:34:14;4.57;;;2.90;;
14209;SDS011;7188;56.070;12.698;2022-08-25T02:36:40;6.93;;;3.10;;
14209;SDS011;7188;56.070;12.698;2022-08-25T02:39:06;3.80;;;2.73;;
14209;SDS011;7188;56.070;12.698;2022-08-25T02:41:33;2.93;;;2.70;;
14209;SDS011;7188;56.070;12.698;2022-08-25T02:43:59;6.20;;;3.30;;
14209;SDS011;7188;56.070;12.698;2022-08-25T02:46:26;3.23;;;2.90;;
14209;SDS011;7188;56.070;12.698;2022-08-25T02:48:52;3.13;;;2.83;;
14209;SDS011;7188;56.070;12.698;2022-08-25T02:51:20;4.23;;;2.87;;
14209;SDS011;7188;56.070;12.698;2022-08-25T02:53:48;5.07;;;2.73;;
14209;SDS011;7188;56.070;12.698;2022-08-25T02:56:14;3.07;;;2.50;;
14209;SDS011;7188;56.070;12.698;2022-08-25T02:58:40;4.90;;;3.07;;
14209;SDS011;7188;56.070;12.698;2022-08-25T03:01:07;3.10;;;2.80;;
14209;SDS011;7188;56.070;12.698;2022-08-25T03:03:36;4.17;;;2.70;;
14209;SDS011;7188;56.070;12.698;2022-08-25T03:06:04;3.83;;;3.30;;
14209;SDS011;7188;56.070;12.698;2022-08-25T03:08:31;2.90;;;2.70;;
14209;SDS011;7188;56.070;12.698;2022-08-25T03:10:57;3.90;;;3.30;;
14209;SDS011;7188;56.070;12.698;2022-08-25T03:13:22;3.00;;;2.73;;
14209;SDS011;7188;56.070;12.698;2022-08-25T03:15:48;3.30;;;3.10;;
14209;SDS011;7188;56.070;12.698;2022-08-25T03:18:14;4.47;;;3.53;;
14209;SDS011;7188;56.070;12.698;2022-08-25T03:20:39;5.03;;;3.17;;
14209;SDS011;7188;56.070;12.698;2022-08-25T03:23:05;2.83;;;2.63;;
14209;SDS011;7188;56.070;12.698;2022-08-25T03:25:31;4.53;;;2.70;;
14209;SDS011;7188;56.070;12.698;2022-08-25T03:28:28;3.07;;;2.73;;
14209;SDS011;7188;56.070;12.698;2022-08-25T03:30:56;4.17;;;2.87;;
14209;SDS011;7188;56.070;12.698;2022-08-25T03:33:24;3.63;;;3.07;;
14209;SDS011;7188;56.070;12.698;2022-08-25T03:35:51;2.40;;;2.13;;
14209;SDS011;7188;56.070;12.698;2022-08-25T03:38:17;3.70;;;2.20;;
14209;SDS011;7188;56.070;12.698;2022-08-25T03:40:42;3.17;;;2.90;;
14209;SDS011;7188;56.070;12.698;2022-08-25T03:43:08;3.43;;;3.13;;
14209;SDS011;7188;56.070;12.698;2022-08-25T03:45:34;4.53;;;3.37;;
14209;SDS011;7188;56.070;12.698;2022-08-25T03:48:04;4.73;;;3.17;;
14209;SDS011;7188;56.070;12.698;2022-08-25T03:50:30;3.03;;;2.83;;
14209;SDS011;7188;56.070;12.698;2022-08-25T03:52:56;4.90;;;3.57;;
14209;SDS011;7188;56.070;12.698;2022-08-25T03:55:22;4.03;;;3.73;;
14209;SDS011;7188;56.070;12.698;2022-08-25T03:57:50;5.13;;;3.77;;
14209;SDS011;7188;56.070;12.698;2022-08-25T04:00:16;4.60;;;4.00;;
14209;SDS011;7188;56.070;12.698;2022-08-25T04:02:42;5.43;;;3.60;;
14209;SDS011;7188;56.070;12.698;2022-08-25T04:05:09;5.23;;;3.97;;
14209;SDS011;7188;56.070;12.698;2022-08-25T04:07:35;7.17;;;4.17;;
14209;SDS011;7188;56.070;12.698;2022-08-25T04:10:02;4.70;;;4.20;;
14209;SDS011;7188;56.070;12.698;2022-08-25T04:12:29;5.27;;;4.83;;
14209;SDS011;7188;56.070;12.698;2022-08-25T04:14:54;4.40;;;4.00;;
14209;SDS011;7188;56.070;12.698;2022-08-25T04:17:20;5.87;;;3.83;;
14209;SDS011;7188;56.070;12.698;2022-08-25T04:19:46;6.30;;;4.03;;
14209;SDS011;7188;56.070;12.698;2022-08-25T04:22:12;6.73;;;4.43;;
14209;SDS011;7188;56.070;12.698;2022-08-25T04:24:37;6.57;;;4.63;;
14209;SDS011;7188;56.070;12.698;2022-08-25T04:27:03;5.20;;;3.90;;
14209;SDS011;7188;56.070;12.698;2022-08-25T04:29:29;3.67;;;3.37;;
14209;SDS011;7188;56.070;12.698;2022-08-25T04:31:54;5.60;;;3.33;;
14209;SDS011;7188;56.070;12.698;2022-08-25T04:34:21;3.40;;;3.10;;
14209;SDS011;7188;56.070;12.698;2022-08-25T04:36:48;3.63;;;2.77;;
14209;SDS011;7188;56.070;12.698;2022-08-25T04:39:15;4.90;;;2.53;;
14209;SDS011;7188;56.070;12.698;2022-08-25T04:41:41;4.70;;;2.87;;
14209;SDS011;7188;56.070;12.698;2022-08-25T04:44:07;2.50;;;2.00;;
14209;SDS011;7188;56.070;12.698;2022-08-25T04:46:32;2.13;;;1.97;;
14209;SDS011;7188;56.070;12.698;2022-08-25T04:48:59;1.53;;;1.40;;
14209;SDS011;7188;56.070;12.698;2022-08-25T04:51:28;5.27;;;2.50;;
14209;SDS011;7188;56.070;12.698;2022-08-25T04:54:00;3.37;;;2.00;;
14209;SDS011;7188;56.070;12.698;2022-08-25T04:56:29;3.50;;;2.03;;
14209;SDS011;7188;56.070;12.698;2022-08-25T04:58:59;2.97;;;1.67;;
14209;SDS011;7188;56.070;12.698;2022-08-25T05:01:29;2.70;;;1.80;;
14209;SDS011;7188;56.070;12.698;2022-08-25T05:03:56;5.27;;;2.57;;
14209;SDS011;7188;56.070;12.698;2022-08-25T05:06:30;5.47;;;2.20;;
14209;SDS011;7188;56.070;12.698;2022-08-25T05:08:57;8.30;;;1.87;;
14209;SDS011;7188;56.070;12.698;2022-08-25T05:11:23;6.43;;;1.90;;
14209;SDS011;7188;56.070;12.698;2022-08-25T05:13:50;5.17;;;2.17;;
14209;SDS011;7188;56.070;12.698;2022-08-25T05:16:17;4.43;;;1.83;;
14209;SDS011;7188;56.070;12.698;2022-08-25T05:18:45;3.47;;;1.40;;
14209;SDS011;7188;56.070;12.698;2022-08-25T05:21:12;5.10;;;1.87;;
14209;SDS011;7188;56.070;12.698;2022-08-25T05:23:39;2.07;;;1.47;;
14209;SDS011;7188;56.070;12.698;2022-08-25T05:26:07;2.07;;;1.40;;
14209;SDS011;7188;56.070;12.698;2022-08-25T05:28:44;3.60;;;1.60;;
14209;SDS011;7188;56.070;12.698;2022-08-25T05:31:11;1.70;;;1.57;;
14209;SDS011;7188;56.070;12.698;2022-08-25T05:33:38;2.37;;;1.50;;
14209;SDS011;7188;56.070;12.698;2022-08-25T05:36:05;2.00;;;1.50;;
14209;SDS011;7188;56.070;12.698;2022-08-25T05:38:32;1.27;;;1.17;;
14209;SDS011;7188;56.070;12.698;2022-08-25T05:41:02;1.63;;;1.30;;
14209;SDS011;7188;56.070;12.698;2022-08-25T05:43:35;1.90;;;1.10;;
14209;SDS011;7188;56.070;12.698;2022-08-25T05:46:04;2.50;;;1.07;;
14209;SDS011;7188;56.070;12.698;2022-08-25T05:48:31;1.13;;;0.80;;
14209;SDS011;7188;56.070;12.698;2022-08-25T05:50:58;1.93;;;0.93;;
14209;SDS011;7188;56.070;12.698;2022-08-25T05:53:25;1.63;;;1.00;;
14209;SDS011;7188;56.070;12.698;2022-08-25T05:55:52;1.30;;;0.93;;
14209;SDS011;7188;56.070;12.698;2022-08-25T05:58:19;1.10;;;0.90;;
14209;SDS011;7188;56.070;12.698;2022-08-25T06:00:46;1.43;;;0.90;;
14209;SDS011;7188;56.070;12.698;2022-08-25T06:03:12;1.40;;;1.20;;
14209;SDS011;7188;56.070;12.698;2022-08-25T06:05:38;3.77;;;0.80;;
14209;SDS011;7188;56.070;12.698;2022-08-25T06:08:05;3.10;;;0.90;;
14209;SDS011;7188;56.070;12.698;2022-08-25T06:10:31;1.37;;;0.90;;
14209;SDS011;7188;56.070;12.698;2022-08-25T06:12:57;2.93;;;1.17;;
14209;SDS011;7188;56.070;12.698;2022-08-25T06:15:23;2.00;;;1.17;;
14209;SDS011;7188;56.070;12.698;2022-08-25T06:17:50;2.17;;;1.20;;
14209;SDS011;7188;56.070;12.698;2022-08-25T06:20:17;1.33;;;0.93;;
14209;SDS011;7188;56.070;12.698;2022-08-25T06:22:47;1.03;;;0.80;;
14209;SDS011;7188;56.070;12.698;2022-08-25T06:25:15;2.47;;;0.90;;
14209;SDS011;7188;56.070;12.698;2022-08-25T06:27:42;2.07;;;0.80;;
14209;SDS011;7188;56.070;12.698;2022-08-25T06:30:10;3.47;;;1.03;;
14209;SDS011;7188;56.070;12.698;2022-08-25T06:32:39;1.23;;;0.80;;
14209;SDS011;7188;56.070;12.698;2022-08-25T06:35:07;2.87;;;0.90;;
14209;SDS011;7188;56.070;12.698;2022-08-25T06:37:34;2.20;;;0.80;;
14209;SDS011;7188;56.070;12.698;2022-08-25T06:40:00;1.63;;;0.50;;
14209;SDS011;7188;56.070;12.698;2022-08-25T06:42:27;3.37;;;0.70;;
14209;SDS011;7188;56.070;12.698;2022-08-25T06:44:52;1.00;;;0.63;;
14209;SDS011;7188;56.070;12.698;2022-08-25T06:47:18;0.90;;;0.50;;
14209;SDS011;7188;56.070;12.698;2022-08-25T06:49:44;1.63;;;0.43;;
14209;SDS011;7188;56.070;12.698;2022-08-25T06:52:11;1.53;;;0.60;;
14209;SDS011;7188;56.070;12.698;2022-08-25T06:54:52;4.77;;;0.90;;
14209;SDS011;7188;56.070;12.698;2022-08-25T06:57:18;4.60;;;1.13;;
14209;SDS011;7188;56.070;12.698;2022-08-25T06:59:44;1.60;;;0.57;;
14209;SDS011;7188;56.070;12.698;2022-08-25T07:02:09;0.80;;;0.80;;
14209;SDS011;7188;56.070;12.698;2022-08-25T07:04:35;1.03;;;0.67;;
14209;SDS011;7188;56.070;12.698;2022-08-25T07:07:01;1.73;;;0.73;;
14209;SDS011;7188;56.070;12.698;2022-08-25T07:09:28;1.33;;;0.60;;
14209;SDS011;7188;56.070;12.698;2022-08-25T07:11:53;0.80;;;0.77;;
14209;SDS011;7188;56.070;12.698;2022-08-25T07:14:19;5.53;;;1.37;;
14209;SDS011;7188;56.070;12.698;2022-08-25T07:16:46;3.42;;;0.80;;
14209;SDS011;7188;56.070;12.698;2022-08-25T07:19:12;1.30;;;0.60;;
14209;SDS011;7188;56.070;12.698;2022-08-25T07:21:38;2.15;;;0.73;;
14209;SDS011;7188;56.070;12.698;2022-08-25T07:24:06;0.95;;;0.73;;
14209;SDS011;7188;56.070;12.698;2022-08-25T07:26:35;2.17;;;1.00;;
14209;SDS011;7188;56.070;12.698;2022-08-25T07:29:03;1.70;;;0.88;;
14209;SDS011;7188;56.070;12.698;2022-08-25T07:31:32;1.92;;;1.05;;
14209;SDS011;7188;56.070;12.698;2022-08-25T07:33:57;1.73;;;0.90;;
14209;SDS011;7188;56.070;12.698;2022-08-25T07:36:42;1.58;;;1.10;;
14209;SDS011;7188;56.070;12.698;2022-08-25T07:39:08;0.77;;;0.77;;
14209;SDS011;7188;56.070;12.698;2022-08-25T07:41:38;3.00;;;0.85;;
14209;SDS011;7188;56.070;12.698;2022-08-25T07:44:05;1.23;;;0.80;;
14209;SDS011;7188;56.070;12.698;2022-08-25T07:46:32;1.83;;;0.90;;
14209;SDS011;7188;56.070;12.698;2022-08-25T07:48:58;2.85;;;1.48;;
14209;SDS011;7188;56.070;12.698;2022-08-25T07:51:23;4.97;;;1.30;;
14209;SDS011;7188;56.070;12.698;2022-08-25T07:53:49;1.48;;;0.90;;
14209;SDS011;7188;56.070;12.698;2022-08-25T07:56:16;1.58;;;0.95;;
14209;SDS011;7188;56.070;12.698;2022-08-25T07:58:43;2.80;;;1.00;;
14209;SDS011;7188;56.070;12.698;2022-08-25T08:01:13;1.02;;;0.90;;
14209;SDS011;7188;56.070;12.698;2022-08-25T08:03:43;0.90;;;0.75;;
14209;SDS011;7188;56.070;12.698;2022-08-25T08:06:10;1.30;;;1.00;;
14209;SDS011;7188;56.070;12.698;2022-08-25T08:08:37;0.70;;;0.70;;
14209;SDS011;7188;56.070;12.698;2022-08-25T08:11:06;1.52;;;1.17;;
14209;SDS011;7188;56.070;12.698;2022-08-25T08:13:40;2.15;;;0.88;;
14209;SDS011;7188;56.070;12.698;2022-08-25T08:16:09;1.40;;;0.73;;
14209;SDS011;7188;56.070;12.698;2022-08-25T08:18:35;2.38;;;0.90;;
14209;SDS011;7188;56.070;12.698;2022-08-25T08:21:01;1.45;;;0.90;;
14209;SDS011;7188;56.070;12.698;2022-08-25T08:23:27;1.80;;;1.02;;
14209;SDS011;7188;56.070;12.698;2022-08-25T08:25:54;1.77;;;0.93;;
14209;SDS011;7188;56.070;12.698;2022-08-25T08:28:23;4.00;;;1.20;;
14209;SDS011;7188;56.070;12.698;2022-08-25T08:30:51;1.13;;;1.00;;
14209;SDS011;7188;56.070;12.698;2022-08-25T08:33:17;3.25;;;1.27;;
14209;SDS011;7188;56.070;12.698;2022-08-25T08:35:43;2.90;;;1.10;;
14209;SDS011;7188;56.070;12.698;2022-08-25T08:38:08;2.15;;;0.90;;
14209;SDS011;7188;56.070;12.698;2022-08-25T08:40:37;2.20;;;1.00;;
14209;SDS011;7188;56.070;12.698;2022-08-25T08:43:47;1.83;;;1.00;;
14209;SDS011;7188;56.070;12.698;2022-08-25T08:46:17;2.15;;;1.13;;
14209;SDS011;7188;56.070;12.698;2022-08-25T08:51:17;1.20;;;1.10;;
14209;SDS011;7188;56.070;12.698;2022-08-25T08:56:22;0.70;;;0.70;;
14209;SDS011;7188;56.070;12.698;2022-08-25T08:59:19;3.70;;;1.10;;
14209;SDS011;7188;56.070;12.698;2022-08-25T09:01:51;1.52;;;1.10;;
14209;SDS011;7188;56.070;12.698;2022-08-25T09:06:57;1.90;;;0.70;;
14209;SDS011;7188;56.070;12.698;2022-08-25T09:12:11;0.70;;;0.70;;
14209;SDS011;7188;56.070;12.698;2022-08-25T09:28:41;7.05;;;1.02;;
14209;SDS011;7188;56.070;12.698;2022-08-25T09:31:31;2.70;;;0.73;;
14209;SDS011;7188;56.070;12.698;2022-08-25T09:34:00;1.63;;;0.70;;
14209;SDS011;7188;56.070;12.698;2022-08-25T09:36:29;1.00;;;0.60;;
14209;SDS011;7188;56.070;12.698;2022-08-25T09:38:55;0.80;;;0.80;;
14209;SDS011;7188;56.070;12.698;2022-08-25T09:41:39;2.58;;;0.20;;
14209;SDS011;7188;56.070;12.698;2022-08-25T09:44:26;1.73;;;0.60;;
14209;SDS011;7188;56.070;12.698;2022-08-25T09:49:21;2.75;;;0.50;;
14209;SDS011;7188;56.070;12.698;2022-08-25T09:52:04;1.50;;;0.60;;
14209;SDS011;7188;56.070;12.698;2022-08-25T09:54:43;1.67;;;0.60;;
14209;SDS011;7188;56.070;12.698;2022-08-25T09:57:09;0.70;;;0.63;;
14209;SDS011;7188;56.070;12.698;2022-08-25T10:05:58;0.73;;;0.45;;
14209;SDS011;7188;56.070;12.698;2022-08-25T10:11:05;1.42;;;0.68;;
14209;SDS011;7188;56.070;12.698;2022-08-25T10:14:03;1.30;;;0.60;;
14209;SDS011;7188;56.070;12.698;2022-08-25T10:16:45;2.42;;;0.60;;
14209;SDS011;7188;56.070;12.698;2022-08-25T10:19:23;1.15;;;0.68;;
14209;SDS011;7188;56.070;12.698;2022-08-25T10:22:05;1.00;;;0.32;;
14209;SDS011;7188;56.070;12.698;2022-08-25T10:24:46;2.13;;;0.70;;
14209;SDS011;7188;56.070;12.698;2022-08-25T10:34:52;0.55;;;0.50;;
14209;SDS011;7188;56.070;12.698;2022-08-25T10:43:04;1.00;;;0.50;;
14209;SDS011;7188;56.070;12.698;2022-08-25T10:45:42;0.60;;;0.40;;
14209;SDS011;7188;56.070;12.698;2022-08-25T10:53:58;0.45;;;0.40;;
14209;SDS011;7188;56.070;12.698;2022-08-25T10:56:49;0.45;;;0.40;;
14209;SDS011;7188;56.070;12.698;2022-08-25T10:59:29;0.60;;;0.30;;
14209;SDS011;7188;56.070;12.698;2022-08-25T11:02:18;0.60;;;0.43;;
14209;SDS011;7188;56.070;12.698;2022-08-25T11:07:52;0.50;;;0.47;;
14209;SDS011;7188;56.070;12.698;2022-08-25T11:10:37;0.90;;;0.40;;
14209;SDS011;7188;56.070;12.698;2022-08-25T11:13:31;0.50;;;0.50;;
14209;SDS011;7188;56.070;12.698;2022-08-25T11:16:05;0.63;;;0.40;;
14209;SDS011;7188;56.070;12.698;2022-08-25T11:18:53;0.55;;;0.35;;
14209;SDS011;7188;56.070;12.698;2022-08-25T11:27:11;0.57;;;0.40;;
14209;SDS011;7188;56.070;12.698;2022-08-25T11:29:43;0.70;;;0.50;;
14209;SDS011;7188;56.070;12.698;2022-08-25T11:32:17;2.00;;;0.45;;
14209;SDS011;7188;56.070;12.698;2022-08-25T11:34:47;0.70;;;0.63;;
14209;SDS011;7188;56.070;12.698;2022-08-25T11:37:28;0.95;;;0.40;;
14209;SDS011;7188;56.070;12.698;2022-08-25T11:40:01;0.40;;;0.40;;
14209;SDS011;7188;56.070;12.698;2022-08-25T11:48:17;1.27;;;0.50;;
14209;SDS011;7188;56.070;12.698;2022-08-25T11:50:57;0.85;;;0.40;;
14209;SDS011;7188;56.070;12.698;2022-08-25T11:53:35;1.42;;;0.40;;
14209;SDS011;7188;56.070;12.698;2022-08-25T11:58:44;0.43;;;0.38;;
14209;SDS011;7188;56.070;12.698;2022-08-25T12:04:11;4.13;;;0.70;;
14209;SDS011;7188;56.070;12.698;2022-08-25T12:23:26;1.27;;;0.60;;
14209;SDS011;7188;56.070;12.698;2022-08-25T12:25:52;0.90;;;0.60;;
14209;SDS011;7188;56.070;12.698;2022-08-25T12:31:07;0.63;;;0.57;;
14209;SDS011;7188;56.070;12.698;2022-08-25T12:36:31;1.15;;;0.80;;
14209;SDS011;7188;56.070;12.698;2022-08-25T12:39:15;2.25;;;0.70;;
14209;SDS011;7188;56.070;12.698;2022-08-25T12:41:51;3.22;;;0.65;;
14209;SDS011;7188;56.070;12.698;2022-08-25T12:49:43;2.20;;;0.60;;
14209;SDS011;7188;56.070;12.698;2022-08-25T12:52:11;4.07;;;0.60;;
14209;SDS011;7188;56.070;12.698;2022-08-25T13:00:23;2.72;;;0.50;;
14209;SDS011;7188;56.070;12.698;2022-08-25T13:11:59;1.40;;;0.80;;
14209;SDS011;7188;56.070;12.698;2022-08-25T13:17:05;2.28;;;0.85;;
14209;SDS011;7188;56.070;12.698;2022-08-25T13:19:35;1.13;;;0.70;;
14209;SDS011;7188;56.070;12.698;2022-08-25T13:22:02;2.03;;;0.68;;
14209;SDS011;7188;56.070;12.698;2022-08-25T13:24:39;3.20;;;0.80;;
14209;SDS011;7188;56.070;12.698;2022-08-25T13:27:07;0.68;;;0.60;;
14209;SDS011;7188;56.070;12.698;2022-08-25T13:29:56;1.85;;;0.77;;
14209;SDS011;7188;56.070;12.698;2022-08-25T13:32:30;0.60;;;0.60;;
14209;SDS011;7188;56.070;12.698;2022-08-25T13:37:47;1.17;;;0.60;;
14209;SDS011;7188;56.070;12.698;2022-08-25T13:40:15;1.33;;;0.70;;
14209;SDS011;7188;56.070;12.698;2022-08-25T13:42:46;1.02;;;0.65;;
14209;SDS011;7188;56.070;12.698;2022-08-25T13:45:18;0.60;;;0.50;;
14209;SDS011;7188;56.070;12.698;2022-08-25T13:47:46;3.33;;;0.70;;
14209;SDS011;7188;56.070;12.698;2022-08-25T13:53:04;1.45;;;0.77;;
14209;SDS011;7188;56.070;12.698;2022-08-25T13:55:38;4.95;;;0.85;;
14209;SDS011;7188;56.070;12.698;2022-08-25T13:58:16;6.57;;;0.80;;
14209;SDS011;7188;56.070;12.698;2022-08-25T14:00:46;6.55;;;0.70;;
14209;SDS011;7188;56.070;12.698;2022-08-25T14:03:34;0.68;;;0.68;;
14209;SDS011;7188;56.070;12.698;2022-08-25T14:06:10;2.10;;;0.60;;
14209;SDS011;7188;56.070;12.698;2022-08-25T14:14:10;2.08;;;0.60;;
14209;SDS011;7188;56.070;12.698;2022-08-25T14:17:02;2.08;;;0.85;;
14209;SDS011;7188;56.070;12.698;2022-08-25T14:19:33;1.13;;;0.75;;
14209;SDS011;7188;56.070;12.698;2022-08-25T14:24:48;1.70;;;0.80;;
14209;SDS011;7188;56.070;12.698;2022-08-25T14:27:17;1.58;;;0.60;;
14209;SDS011;7188;56.070;12.698;2022-08-25T14:29:43;0.77;;;0.73;;
14209;SDS011;7188;56.070;12.698;2022-08-25T14:32:09;1.40;;;0.60;;
14209;SDS011;7188;56.070;12.698;2022-08-25T14:34:35;2.20;;;0.80;;
14209;SDS011;7188;56.070;12.698;2022-08-25T14:37:08;1.20;;;0.60;;
14209;SDS011;7188;56.070;12.698;2022-08-25T14:39:38;3.92;;;0.60;;
14209;SDS011;7188;56.070;12.698;2022-08-25T14:42:03;1.40;;;0.43;;
14209;SDS011;7188;56.070;12.698;2022-08-25T14:44:29;0.63;;;0.50;;
14209;SDS011;7188;56.070;12.698;2022-08-25T14:46:55;0.50;;;0.50;;
14209;SDS011;7188;56.070;12.698;2022-08-25T14:49:23;0.50;;;0.50;;
14209;SDS011;7188;56.070;12.698;2022-08-25T14:51:53;1.08;;;0.52;;
14209;SDS011;7188;56.070;12.698;2022-08-25T14:54:21;0.63;;;0.40;;
14209;SDS011;7188;56.070;12.698;2022-08-25T14:56:50;1.33;;;0.68;;
14209;SDS011;7188;56.070;12.698;2022-08-25T14:59:16;1.30;;;0.50;;
14209;SDS011;7188;56.070;12.698;2022-08-25T15:01:42;0.98;;;0.55;;
14209;SDS011;7188;56.070;12.698;2022-08-25T15:04:09;1.63;;;0.60;;
14209;SDS011;7188;56.070;12.698;2022-08-25T15:06:42;3.65;;;0.65;;
14209;SDS011;7188;56.070;12.698;2022-08-25T15:09:09;1.02;;;0.60;;
14209;SDS011;7188;56.070;12.698;2022-08-25T15:11:38;4.13;;;0.70;;
14209;SDS011;7188;56.070;12.698;2022-08-25T15:14:09;2.17;;;0.52;;
14209;SDS011;7188;56.070;12.698;2022-08-25T15:16:37;3.15;;;0.70;;
14209;SDS011;7188;56.070;12.698;2022-08-25T15:19:06;1.17;;;0.55;;
14209;SDS011;7188;56.070;12.698;2022-08-25T15:21:34;2.13;;;0.70;;
14209;SDS011;7188;56.070;12.698;2022-08-25T15:24:01;0.77;;;0.47;;
14209;SDS011;7188;56.070;12.698;2022-08-25T15:26:28;0.70;;;0.50;;
14209;SDS011;7188;56.070;12.698;2022-08-25T15:28:55;2.33;;;0.80;;
14209;SDS011;7188;56.070;12.698;2022-08-25T15:31:20;1.02;;;0.60;;
14209;SDS011;7188;56.070;12.698;2022-08-25T15:33:47;2.03;;;0.70;;
14209;SDS011;7188;56.070;12.698;2022-08-25T15:36:13;0.80;;;0.57;;
14209;SDS011;7188;56.070;12.698;2022-08-25T15:38:41;0.80;;;0.50;;
14209;SDS011;7188;56.070;12.698;2022-08-25T15:41:08;0.95;;;0.60;;
14209;SDS011;7188;56.070;12.698;2022-08-25T15:43:35;2.28;;;0.70;;
14209;SDS011;7188;56.070;12.698;2022-08-25T15:46:02;2.03;;;0.60;;
14209;SDS011;7188;56.070;12.698;2022-08-25T15:48:29;1.50;;;0.65;;
14209;SDS011;7188;56.070;12.698;2022-08-25T15:50:56;2.83;;;0.75;;
14209;SDS011;7188;56.070;12.698;2022-08-25T15:53:25;0.68;;;0.52;;
14209;SDS011;7188;56.070;12.698;2022-08-25T15:55:52;1.50;;;0.73;;
14209;SDS011;7188;56.070;12.698;2022-08-25T15:58:18;2.30;;;0.65;;
14209;SDS011;7188;56.070;12.698;2022-08-25T16:00:45;2.45;;;0.80;;
14209;SDS011;7188;56.070;12.698;2022-08-25T16:03:11;1.15;;;0.82;;
14209;SDS011;7188;56.070;12.698;2022-08-25T16:05:38;3.08;;;0.93;;
14209;SDS011;7188;56.070;12.698;2022-08-25T16:08:04;0.73;;;0.70;;
14209;SDS011;7188;56.070;12.698;2022-08-25T16:10:34;1.10;;;0.50;;
14209;SDS011;7188;56.070;12.698;2022-08-25T16:13:04;2.83;;;0.90;;
14209;SDS011;7188;56.070;12.698;2022-08-25T16:15:31;1.30;;;0.60;;
14209;SDS011;7188;56.070;12.698;2022-08-25T16:17:57;2.97;;;1.58;;
14209;SDS011;7188;56.070;12.698;2022-08-25T16:20:27;1.40;;;0.70;;
14209;SDS011;7188;56.070;12.698;2022-08-25T16:22:54;1.58;;;0.70;;
14209;SDS011;7188;56.070;12.698;2022-08-25T16:25:19;3.25;;;0.60;;
14209;SDS011;7188;56.070;12.698;2022-08-25T16:27:45;6.32;;;4.22;;
14209;SDS011;7188;56.070;12.698;2022-08-25T16:30:11;5.35;;;2.65;;
14209;SDS011;7188;56.070;12.698;2022-08-25T16:32:38;2.45;;;1.45;;
14209;SDS011;7188;56.070;12.698;2022-08-25T16:35:05;2.22;;;0.65;;
14209;SDS011;7188;56.070;12.698;2022-08-25T16:37:32;2.00;;;0.70;;
14209;SDS011;7188;56.070;12.698;2022-08-25T16:39:59;2.38;;;0.40;;
14209;SDS011;7188;56.070;12.698;2022-08-25T16:42:25;0.95;;;0.60;;
14209;SDS011;7188;56.070;12.698;2022-08-25T16:44:51;1.30;;;0.60;;
14209;SDS011;7188;56.070;12.698;2022-08-25T16:47:16;4.28;;;0.70;;
14209;SDS011;7188;56.070;12.698;2022-08-25T16:49:44;1.88;;;0.57;;
14209;SDS011;7188;56.070;12.698;2022-08-25T16:52:10;2.53;;;0.47;;
14209;SDS011;7188;56.070;12.698;2022-08-25T16:54:55;4.45;;;0.40;;
14209;SDS011;7188;56.070;12.698;2022-08-25T16:57:36;1.52;;;0.50;;
14209;SDS011;7188;56.070;12.698;2022-08-25T17:00:06;2.13;;;0.70;;
14209;SDS011;7188;56.070;12.698;2022-08-25T17:02:38;0.80;;;0.50;;
14209;SDS011;7188;56.070;12.698;2022-08-25T17:05:04;2.55;;;0.88;;
14209;SDS011;7188;56.070;12.698;2022-08-25T17:07:31;2.95;;;0.50;;
14209;SDS011;7188;56.070;12.698;2022-08-25T17:09:57;1.95;;;0.57;;
14209;SDS011;7188;56.070;12.698;2022-08-25T17:12:23;4.93;;;0.60;;
14209;SDS011;7188;56.070;12.698;2022-08-25T17:14:50;1.02;;;0.50;;
14209;SDS011;7188;56.070;12.698;2022-08-25T17:17:16;0.88;;;0.60;;
14209;SDS011;7188;56.070;12.698;2022-08-25T17:19:41;3.28;;;0.70;;
14209;SDS011;7188;56.070;12.698;2022-08-25T17:22:07;4.45;;;1.02;;